createdAt,value
2019-04-29T00:01:23.196Z,92.00
2019-04-29T00:03:52.181Z,92.00
2019-04-29T00:06:21.465Z,92.00
2019-04-29T00:08:50.294Z,92.20
2019-04-29T00:11:19.114Z,92.20
2019-04-29T00:13:47.891Z,92.20
2019-04-29T00:16:34.846Z,92.30
2019-04-29T00:19:29.642Z,92.40
2019-04-29T00:22:00.016Z,92.40
2019-04-29T00:24:28.860Z,92.50
2019-04-29T00:26:58.014Z,92.70
2019-04-29T00:29:26.905Z,92.60
2019-04-29T00:31:55.654Z,92.80
2019-04-29T00:34:24.876Z,92.80
2019-04-29T00:37:07.205Z,93.10
2019-04-29T00:39:55.182Z,92.80
2019-04-29T00:42:46.334Z,92.80
2019-04-29T00:45:15.450Z,93.00
2019-04-29T00:47:44.426Z,92.90
2019-04-29T00:50:13.509Z,92.80
2019-04-29T00:52:42.330Z,92.90
2019-04-29T00:55:14.019Z,92.90
2019-04-29T00:57:43.177Z,93.00
2019-04-29T01:00:22.113Z,93.00
2019-04-29T01:02:51.013Z,93.10
2019-04-29T01:05:20.002Z,93.30
2019-04-29T01:07:48.934Z,93.30
2019-04-29T01:10:17.730Z,93.30
2019-04-29T01:12:46.612Z,93.30
2019-04-29T01:15:15.436Z,93.50
2019-04-29T01:17:44.329Z,93.60
2019-04-29T01:20:13.365Z,93.70
2019-04-29T01:22:42.578Z,93.60
2019-04-29T01:25:11.750Z,93.70
2019-04-29T01:27:46.130Z,93.80
2019-04-29T01:30:53.678Z,93.90
2019-04-29T01:33:22.788Z,94.10
2019-04-29T01:35:54.897Z,94.20
2019-04-29T01:38:23.986Z,94.40
2019-04-29T01:41:02.473Z,94.50
2019-04-29T01:44:02.898Z,94.60
2019-04-29T01:46:31.958Z,94.80
2019-04-29T01:49:01.027Z,94.90
2019-04-29T01:51:29.729Z,95.20
2019-04-29T01:53:58.715Z,95.20
2019-04-29T01:56:27.477Z,95.40
2019-04-29T01:58:56.345Z,95.60
2019-04-29T02:01:25.465Z,95.80
2019-04-29T02:03:54.194Z,95.60
2019-04-29T02:06:23.575Z,95.80
2019-04-29T02:08:54.689Z,95.70
2019-04-29T02:11:23.658Z,96.00
2019-04-29T02:13:52.391Z,96.20
2019-04-29T02:16:21.137Z,96.20
2019-04-29T02:18:50.036Z,96.20
2019-04-29T02:21:18.761Z,96.10
2019-04-29T02:23:56.577Z,96.40
2019-04-29T02:26:25.341Z,96.80
2019-04-29T02:28:54.003Z,96.60
2019-04-29T02:31:52.658Z,96.70
2019-04-29T02:34:21.582Z,96.90
2019-04-29T02:36:50.514Z,97.00
2019-04-29T02:39:40.183Z,96.90
2019-04-29T02:42:43.214Z,97.00
2019-04-29T02:45:17.322Z,96.90
2019-04-29T02:47:46.089Z,97.30
2019-04-29T02:50:14.868Z,97.10
2019-04-29T02:52:43.703Z,97.30
2019-04-29T02:55:14.570Z,97.30
2019-04-29T02:57:52.592Z,97.30
2019-04-29T03:00:55.717Z,97.40
2019-04-29T03:03:31.354Z,97.30
2019-04-29T03:06:01.636Z,97.30
2019-04-29T03:08:30.443Z,97.50
2019-04-29T03:11:00.942Z,97.40
2019-04-29T03:13:29.690Z,97.50
2019-04-29T03:15:58.940Z,97.50
2019-04-29T03:18:30.160Z,97.70
2019-04-29T03:21:11.636Z,97.70
2019-04-29T03:23:40.400Z,97.90
2019-04-29T03:26:09.386Z,97.70
2019-04-29T03:28:38.064Z,97.80
2019-04-29T03:31:06.782Z,98.00
2019-04-29T03:33:35.520Z,97.80
2019-04-29T03:36:04.402Z,97.80
2019-04-29T03:38:33.347Z,97.80
2019-04-29T03:41:02.112Z,97.70
2019-04-29T03:43:31.148Z,97.90
2019-04-29T03:46:00.439Z,97.90
2019-04-29T03:48:29.118Z,98.10
2019-04-29T03:50:57.872Z,98.10
2019-04-29T03:53:28.535Z,97.90
2019-04-29T03:55:57.339Z,98.10
2019-04-29T03:58:26.135Z,98.20
2019-04-29T04:01:01.609Z,98.20
2019-04-29T04:03:49.760Z,98.20
2019-04-29T04:06:41.921Z,98.20
2019-04-29T04:09:22.097Z,98.30
2019-04-29T04:11:51.190Z,98.40
2019-04-29T04:14:20.211Z,98.30
2019-04-29T04:17:14.542Z,98.30
2019-04-29T04:19:43.442Z,98.40
2019-04-29T04:22:12.144Z,98.40
2019-04-29T04:24:40.906Z,98.70
2019-04-29T04:27:09.606Z,98.40
2019-04-29T04:29:38.311Z,98.60
2019-04-29T04:32:07.385Z,98.60
2019-04-29T04:34:36.154Z,98.60
2019-04-29T04:37:05.961Z,98.60
2019-04-29T04:39:36.747Z,98.90
2019-04-29T04:42:05.653Z,98.80
2019-04-29T04:44:50.269Z,98.70
2019-04-29T04:47:20.293Z,98.90
2019-04-29T04:49:49.144Z,98.90
2019-04-29T04:52:17.908Z,98.80
2019-04-29T04:54:48.854Z,98.70
2019-04-29T04:57:17.553Z,98.80
2019-04-29T04:59:46.574Z,98.70
2019-04-29T05:02:15.397Z,98.80
2019-04-29T05:04:44.176Z,98.70
2019-04-29T05:07:13.145Z,98.80
2019-04-29T05:09:42.381Z,98.50
2019-04-29T05:12:13.950Z,98.40
2019-04-29T05:14:41.499Z,98.50
2019-04-29T05:17:11.270Z,98.70
2019-04-29T05:19:39.995Z,98.90
2019-04-29T05:22:08.998Z,99.00
2019-04-29T05:24:38.099Z,99.10
2019-04-29T05:27:06.974Z,99.10
2019-04-29T05:29:35.911Z,98.90
2019-04-29T05:32:04.951Z,99.00
2019-04-29T05:34:35.650Z,99.00
2019-04-29T05:37:18.243Z,98.90
2019-04-29T05:39:47.228Z,98.70
2019-04-29T05:42:17.257Z,98.60
2019-04-29T05:44:55.289Z,98.80
2019-04-29T05:47:34.498Z,98.80
2019-04-29T05:50:21.218Z,98.70
2019-04-29T05:52:55.874Z,99.10
2019-04-29T05:55:24.597Z,99.10
2019-04-29T05:58:02.925Z,99.30
2019-04-29T06:00:26.534Z,99.10
2019-04-29T06:02:55.633Z,99.30
2019-04-29T06:05:24.967Z,99.40
2019-04-29T06:07:56.247Z,99.70
2019-04-29T06:10:24.757Z,99.40
2019-04-29T06:12:54.228Z,99.40
2019-04-29T06:15:23.113Z,99.60
2019-04-29T06:17:51.937Z,99.80
2019-04-29T06:20:22.867Z,99.60
2019-04-29T06:22:51.989Z,99.60
2019-04-29T06:25:20.729Z,99.90
2019-04-29T06:27:49.479Z,99.90
2019-04-29T06:30:18.455Z,99.90
2019-04-29T06:32:47.125Z,99.90
2019-04-29T06:35:15.915Z,99.90
2019-04-29T06:37:44.640Z,99.90
2019-04-29T06:40:13.384Z,99.90
2019-04-29T06:42:42.106Z,99.90
2019-04-29T06:45:10.855Z,99.90
2019-04-29T06:47:39.634Z,99.90
2019-04-29T06:50:09.105Z,99.60
2019-04-29T06:52:37.788Z,99.40
2019-04-29T06:55:07.051Z,99.30
2019-04-29T06:57:36.082Z,99.40
2019-04-29T07:00:05.480Z,99.30
2019-04-29T07:02:34.160Z,99.20
2019-04-29T07:05:03.358Z,99.20
2019-04-29T07:07:32.024Z,99.40
2019-04-29T07:10:00.778Z,99.20
2019-04-29T07:12:29.547Z,99.70
2019-04-29T07:14:58.223Z,99.60
2019-04-29T07:17:27.204Z,99.60
2019-04-29T07:19:57.531Z,99.90
2019-04-29T07:22:27.602Z,99.90
2019-04-29T07:24:56.323Z,99.90
2019-04-29T07:27:25.076Z,99.90
2019-04-29T07:29:53.743Z,99.80
2019-04-29T07:32:22.946Z,99.90
2019-04-29T07:34:51.685Z,99.90
2019-04-29T07:37:20.602Z,99.90
2019-04-29T07:39:49.356Z,99.90
2019-04-29T07:42:18.401Z,99.90
2019-04-29T07:45:06.206Z,99.90
2019-04-29T07:47:35.858Z,99.90
2019-04-29T07:50:05.219Z,99.70
2019-04-29T07:52:34.498Z,99.40
2019-04-29T07:55:03.398Z,99.30
2019-04-29T07:57:32.237Z,99.30
2019-04-29T08:00:01.106Z,99.30
2019-04-29T08:02:30.052Z,99.30
2019-04-29T08:04:59.126Z,99.40
2019-04-29T08:07:28.114Z,99.40
2019-04-29T08:09:56.973Z,99.30
2019-04-29T08:12:26.964Z,99.20
2019-04-29T08:14:58.528Z,99.20
2019-04-29T08:17:26.774Z,99.30
2019-04-29T08:19:55.474Z,99.10
2019-04-29T08:22:27.754Z,99.70
2019-04-29T08:24:55.199Z,99.90
2019-04-29T08:27:24.517Z,99.70
2019-04-29T08:29:53.774Z,99.70
2019-04-29T08:32:22.613Z,99.50
2019-04-29T08:34:53.574Z,99.70
2019-04-29T08:37:24.867Z,99.40
2019-04-29T08:40:08.332Z,99.40
2019-04-29T08:42:26.751Z,99.40
2019-04-29T08:45:16.753Z,99.30
2019-04-29T08:47:46.730Z,98.80
2019-04-29T08:50:15.533Z,98.90
2019-04-29T08:52:44.573Z,98.60
2019-04-29T08:55:13.507Z,98.50
2019-04-29T08:57:48.634Z,98.60
2019-04-29T09:00:17.747Z,98.00
2019-04-29T09:02:49.249Z,97.60
2019-04-29T09:05:16.975Z,97.50
2019-04-29T09:07:45.721Z,97.80
2019-04-29T09:10:14.529Z,97.40
2019-04-29T09:12:43.414Z,97.00
2019-04-29T09:15:12.593Z,96.90
2019-04-29T09:17:41.279Z,96.30
2019-04-29T09:20:10.277Z,95.90
2019-04-29T09:22:42.669Z,95.50
2019-04-29T09:25:30.658Z,95.60
2019-04-29T09:28:01.032Z,95.30
2019-04-29T09:30:29.876Z,95.30
2019-04-29T09:32:58.660Z,94.80
2019-04-29T09:35:28.870Z,94.80
2019-04-29T09:37:58.408Z,94.80
2019-04-29T09:40:30.117Z,95.40
2019-04-29T09:43:25.269Z,95.50
2019-04-29T09:46:07.119Z,96.00
2019-04-29T09:48:36.136Z,96.00
2019-04-29T09:51:16.735Z,95.90
2019-04-29T09:53:35.514Z,95.80
2019-04-29T09:56:04.259Z,95.50
2019-04-29T09:58:33.138Z,96.20
2019-04-29T10:01:50.409Z,95.80
2019-04-29T10:04:39.599Z,96.00
2019-04-29T10:07:09.733Z,96.50
2019-04-29T10:09:38.742Z,96.40
2019-04-29T10:12:07.519Z,96.40
2019-04-29T10:14:36.653Z,96.00
2019-04-29T10:17:20.372Z,96.10
2019-04-29T10:20:11.677Z,96.40
2019-04-29T10:22:40.657Z,96.40
2019-04-29T10:25:09.986Z,96.50
2019-04-29T10:27:38.683Z,96.20
2019-04-29T10:30:08.688Z,95.80
2019-04-29T10:32:37.759Z,95.80
2019-04-29T10:35:10.465Z,96.40
2019-04-29T10:37:38.857Z,96.40
2019-04-29T10:40:20.074Z,96.20
2019-04-29T10:43:06.475Z,96.70
2019-04-29T10:45:53.331Z,96.10
2019-04-29T10:48:28.982Z,96.20
2019-04-29T10:50:58.062Z,96.00
2019-04-29T10:53:28.977Z,96.30
2019-04-29T10:56:00.889Z,96.10
2019-04-29T10:58:35.057Z,96.00
2019-04-29T11:02:01.146Z,95.50
2019-04-29T11:04:23.591Z,95.40
2019-04-29T11:06:52.478Z,94.90
2019-04-29T11:09:36.721Z,94.80
2019-04-29T11:12:08.865Z,94.60
2019-04-29T11:14:39.173Z,94.60
2019-04-29T11:17:16.015Z,94.50
2019-04-29T11:19:39.922Z,94.90
2019-04-29T11:22:10.587Z,94.90
2019-04-29T11:24:54.083Z,94.70
2019-04-29T11:27:26.938Z,94.40
2019-04-29T11:29:58.564Z,94.30
2019-04-29T11:32:39.803Z,94.20
2019-04-29T11:35:28.389Z,94.50
2019-04-29T11:37:59.897Z,94.20
2019-04-29T11:40:42.763Z,94.00
2019-04-29T11:42:57.138Z,93.70
2019-04-29T11:45:26.257Z,93.90
2019-04-29T11:47:54.929Z,94.00
2019-04-29T11:50:29.919Z,93.70
2019-04-29T11:52:58.971Z,94.00
2019-04-29T11:55:27.618Z,93.90
2019-04-29T11:58:02.368Z,94.10
2019-04-29T12:00:52.007Z,94.30
2019-04-29T12:03:21.011Z,94.00
2019-04-29T12:05:56.031Z,94.40
2019-04-29T12:08:25.167Z,94.20
2019-04-29T12:11:06.740Z,94.00
2019-04-29T12:13:34.538Z,93.90
2019-04-29T12:16:26.338Z,93.60
2019-04-29T12:18:59.981Z,93.30
2019-04-29T12:21:33.448Z,93.00
2019-04-29T12:24:03.513Z,92.80
2019-04-29T12:26:35.038Z,92.90
2019-04-29T12:29:02.823Z,93.00
2019-04-29T12:31:44.850Z,92.40
2019-04-29T12:34:30.145Z,92.30
2019-04-29T12:36:59.123Z,92.10
2019-04-29T12:39:45.618Z,91.60
2019-04-29T12:42:45.241Z,91.10
2019-04-29T12:45:25.023Z,91.10
2019-04-29T12:47:54.562Z,90.70
2019-04-29T12:50:23.387Z,91.00
2019-04-29T12:52:52.299Z,91.00
2019-04-29T12:55:43.628Z,91.50
2019-04-29T12:57:57.271Z,91.80
2019-04-29T13:00:30.659Z,92.00
2019-04-29T13:03:13.026Z,92.30
2019-04-29T13:06:09.493Z,92.00
2019-04-29T13:08:43.779Z,91.00
2019-04-29T13:11:14.715Z,90.90
2019-04-29T13:13:43.058Z,90.20
2019-04-29T13:16:44.831Z,90.70
2019-04-29T13:19:20.368Z,91.00
2019-04-29T13:21:48.055Z,90.30
2019-04-29T13:24:24.314Z,89.60
2019-04-29T13:26:47.170Z,88.30
2019-04-29T13:29:26.809Z,87.90
2019-04-29T13:31:46.565Z,87.00
2019-04-29T13:34:24.118Z,87.00
2019-04-29T13:37:06.674Z,88.40
2019-04-29T13:39:38.331Z,87.90
2019-04-29T13:41:57.849Z,87.80
2019-04-29T13:44:24.921Z,87.40
2019-04-29T13:47:18.809Z,87.50
2019-04-29T13:49:51.446Z,88.80
2019-04-29T13:52:20.399Z,89.90
2019-04-29T13:54:49.330Z,90.30
2019-04-29T13:57:18.121Z,90.40
2019-04-29T13:59:54.281Z,90.00
2019-04-29T14:02:32.325Z,90.00
2019-04-29T14:05:02.219Z,90.10
2019-04-29T14:07:31.197Z,89.20
2019-04-29T14:10:00.398Z,89.30
2019-04-29T14:15:00.288Z,87.70
2019-04-29T14:17:31.665Z,87.10
2019-04-29T14:19:59.617Z,86.70
2019-04-29T14:22:29.073Z,86.30
2019-04-29T14:24:58.110Z,86.20
2019-04-29T14:27:26.793Z,85.80
2019-04-29T14:29:55.508Z,85.90
2019-04-29T14:32:34.655Z,85.20
2019-04-29T14:35:02.206Z,85.00
2019-04-29T14:37:31.025Z,85.00
2019-04-29T14:40:02.895Z,84.80
2019-04-29T14:42:40.089Z,85.60
2019-04-29T14:45:26.811Z,84.30
2019-04-29T14:48:16.034Z,83.50
2019-04-29T14:50:49.481Z,81.40
2019-04-29T14:53:19.426Z,80.40
2019-04-29T14:55:47.533Z,79.90
2019-04-29T14:58:16.606Z,80.10
2019-04-29T15:01:03.848Z,80.40
2019-04-29T15:03:35.309Z,79.90
2019-04-29T15:06:07.175Z,78.30
2019-04-29T15:08:36.655Z,77.40
2019-04-29T15:11:08.945Z,77.60
2019-04-29T15:13:37.522Z,74.20
2019-04-29T15:16:22.321Z,72.20
2019-04-29T15:19:03.107Z,72.30
2019-04-29T15:21:43.787Z,72.80
2019-04-29T15:24:12.933Z,71.30
2019-04-29T15:26:41.675Z,71.80
2019-04-29T15:29:10.695Z,71.60
2019-04-29T15:31:42.427Z,72.10
2019-04-29T15:34:12.838Z,71.40
2019-04-29T15:36:42.005Z,70.10
2019-04-29T15:39:12.056Z,71.00
2019-04-29T15:41:41.317Z,69.80
2019-04-29T15:44:19.071Z,68.30
2019-04-29T15:46:47.953Z,66.90
2019-04-29T15:49:11.398Z,68.10
2019-04-29T15:51:44.151Z,69.20
2019-04-29T15:54:14.297Z,68.90
2019-04-29T15:56:42.078Z,68.60
2019-04-29T15:59:11.210Z,67.90
2019-04-29T16:01:41.608Z,66.60
2019-04-29T16:04:14.174Z,66.50
2019-04-29T16:07:00.114Z,63.10
2019-04-29T16:09:51.664Z,63.00
2019-04-29T16:12:45.337Z,61.50
2019-04-29T16:15:12.828Z,60.90
2019-04-29T16:17:41.945Z,60.10
2019-04-29T16:20:16.682Z,59.70
2019-04-29T16:22:45.673Z,59.60
2019-04-29T16:25:14.464Z,59.50
2019-04-29T16:27:51.464Z,59.50
2019-04-29T16:30:18.782Z,59.60
2019-04-29T16:32:45.053Z,59.00
2019-04-29T16:35:18.056Z,59.50
2019-04-29T16:37:44.372Z,59.60
2019-04-29T16:40:14.043Z,59.90
2019-04-29T16:43:01.770Z,59.90
2019-04-29T16:45:44.366Z,59.90
2019-04-29T16:48:12.462Z,58.90
2019-04-29T16:50:41.234Z,58.60
2019-04-29T16:53:10.610Z,56.80
2019-04-29T16:55:43.105Z,56.90
2019-04-29T16:58:17.697Z,57.50
2019-04-29T17:00:46.735Z,57.60
2019-04-29T17:03:12.879Z,56.40
2019-04-29T17:05:41.897Z,55.30
2019-04-29T17:08:15.192Z,54.50
2019-04-29T17:10:55.197Z,54.30
2019-04-29T17:13:24.141Z,54.90
2019-04-29T17:15:53.886Z,56.20
2019-04-29T17:18:22.713Z,56.90
2019-04-29T17:21:04.623Z,57.00
2019-04-29T17:23:26.574Z,56.90
2019-04-29T17:25:55.651Z,56.90
2019-04-29T17:28:30.198Z,56.80
2019-04-29T17:31:16.865Z,55.80
2019-04-29T17:33:57.775Z,55.40
2019-04-29T17:36:26.822Z,55.40
2019-04-29T17:38:55.573Z,54.40
2019-04-29T17:41:26.137Z,54.70
2019-04-29T17:44:18.769Z,55.10
2019-04-29T17:47:07.138Z,55.40
2019-04-29T17:49:45.382Z,55.90
2019-04-29T17:52:25.813Z,56.50
2019-04-29T17:54:57.341Z,57.00
2019-04-29T17:57:36.391Z,57.30
2019-04-29T18:00:43.770Z,57.00
2019-04-29T18:03:19.410Z,57.10
2019-04-29T18:05:57.068Z,56.50
2019-04-29T18:08:41.790Z,56.30
2019-04-29T18:11:10.677Z,53.30
2019-04-29T18:13:39.978Z,52.70
2019-04-29T18:16:17.570Z,51.60
2019-04-29T18:18:53.552Z,50.60
2019-04-29T18:21:52.958Z,49.70
2019-04-29T18:24:35.861Z,50.20
2019-04-29T18:27:03.361Z,49.60
2019-04-29T18:29:36.375Z,49.60
2019-04-29T18:32:05.241Z,48.80
2019-04-29T18:34:37.288Z,49.00
2019-04-29T18:37:06.450Z,49.70
2019-04-29T18:39:36.118Z,50.10
2019-04-29T18:42:06.752Z,50.50
2019-04-29T18:44:35.874Z,50.90
2019-04-29T18:47:05.524Z,51.50
2019-04-29T18:49:34.619Z,52.00
2019-04-29T18:52:05.643Z,52.60
2019-04-29T18:54:35.882Z,52.90
2019-04-29T18:57:09.178Z,52.90
2019-04-29T18:59:38.098Z,53.20
2019-04-29T19:02:09.326Z,53.90
2019-04-29T19:04:58.539Z,54.30
2019-04-29T19:07:27.527Z,54.70
2019-04-29T19:09:56.549Z,55.10
2019-04-29T19:12:25.767Z,55.40
2019-04-29T19:14:59.742Z,55.50
2019-04-29T19:17:30.770Z,55.50
2019-04-29T19:20:02.410Z,55.30
2019-04-29T19:22:33.340Z,55.50
2019-04-29T19:25:08.694Z,55.80
2019-04-29T19:27:39.750Z,56.20
2019-04-29T19:30:08.760Z,56.60
2019-04-29T19:32:44.519Z,57.40
2019-04-29T19:35:12.734Z,58.10
2019-04-29T19:37:41.845Z,58.50
2019-04-29T19:40:10.626Z,58.80
2019-04-29T19:42:39.946Z,60.00
2019-04-29T19:45:13.356Z,59.10
2019-04-29T19:47:40.673Z,58.70
2019-04-29T19:50:10.617Z,59.20
2019-04-29T19:52:39.314Z,59.00
2019-04-29T19:55:08.060Z,59.50
2019-04-29T19:57:42.209Z,59.40
2019-04-29T20:00:08.675Z,60.10
2019-04-29T20:02:45.069Z,60.20
2019-04-29T20:05:23.793Z,60.10
2019-04-29T20:07:51.564Z,60.60
2019-04-29T20:10:21.656Z,61.00
2019-04-29T20:12:53.212Z,61.60
2019-04-29T20:15:25.822Z,61.70
2019-04-29T20:18:23.732Z,62.20
2019-04-29T20:21:08.556Z,62.60
2019-04-29T20:23:36.179Z,62.50
2019-04-29T20:26:13.739Z,62.40
2019-04-29T20:28:36.012Z,62.50
2019-04-29T20:31:19.225Z,62.60
2019-04-29T20:33:42.050Z,62.90
2019-04-29T20:36:33.233Z,63.00
2019-04-29T20:38:48.629Z,63.10
2019-04-29T20:41:24.975Z,63.40
2019-04-29T20:43:48.016Z,63.40
2019-04-29T20:46:18.006Z,63.50
2019-04-29T20:48:50.412Z,62.80
2019-04-29T20:51:18.104Z,63.40
2019-04-29T20:54:03.860Z,63.20
2019-04-29T20:56:35.404Z,63.50
2019-04-29T20:59:12.530Z,64.10
2019-04-29T21:01:43.193Z,64.30
2019-04-29T21:04:10.541Z,64.70
2019-04-29T21:06:56.533Z,65.00
2019-04-29T21:09:10.029Z,65.20
2019-04-29T21:11:51.613Z,65.60
2019-04-29T21:14:27.142Z,65.90
2019-04-29T21:16:55.202Z,66.40
2019-04-29T21:19:24.462Z,66.80
2019-04-29T21:21:55.084Z,67.10
2019-04-29T21:24:25.082Z,67.50
2019-04-29T21:26:55.331Z,68.00
2019-04-29T21:29:25.590Z,68.20
2019-04-29T21:31:58.468Z,68.70
2019-04-29T21:34:29.567Z,68.90
2019-04-29T21:37:16.851Z,69.30
2019-04-29T21:39:56.398Z,69.70
2019-04-29T21:42:41.855Z,70.00
2019-04-29T21:45:13.527Z,70.40
2019-04-29T21:47:47.368Z,71.10
2019-04-29T21:50:14.827Z,71.60
2019-04-29T21:52:44.771Z,72.00
2019-04-29T21:55:16.090Z,72.50
2019-04-29T21:57:45.097Z,73.10
2019-04-29T22:00:24.007Z,73.40
2019-04-29T22:02:49.146Z,73.70
2019-04-29T22:05:18.567Z,74.10
2019-04-29T22:07:47.627Z,74.60
2019-04-29T22:10:19.813Z,75.00
2019-04-29T22:12:50.875Z,75.40
2019-04-29T22:15:29.802Z,75.90
2019-04-29T22:17:56.166Z,76.20
2019-04-29T22:20:19.597Z,76.60
2019-04-29T22:22:48.274Z,77.00
2019-04-29T22:25:17.029Z,77.20
2019-04-29T22:27:45.918Z,77.70
2019-04-29T22:30:18.520Z,78.00
2019-04-29T22:32:51.665Z,78.40
2019-04-29T22:35:17.919Z,78.60
2019-04-29T22:37:46.579Z,79.10
2019-04-29T22:40:17.452Z,79.60
2019-04-29T22:43:08.398Z,80.00
2019-04-29T22:45:34.020Z,80.40
2019-04-29T22:48:14.224Z,80.80
2019-04-29T22:50:38.013Z,81.10
2019-04-29T22:53:05.929Z,81.70
2019-04-29T22:55:37.700Z,82.00
2019-04-29T22:58:09.809Z,82.30
2019-04-29T23:00:36.308Z,82.60
2019-04-29T23:03:05.210Z,82.90
2019-04-29T23:05:35.692Z,83.10
2019-04-29T23:08:05.111Z,83.50
2019-04-29T23:10:35.547Z,83.80
2019-04-29T23:13:06.193Z,84.20
2019-04-29T23:15:35.849Z,84.40
2019-04-29T23:18:05.874Z,84.60
2019-04-29T23:21:03.638Z,84.80
2019-04-29T23:23:38.207Z,85.10
2019-04-29T23:26:05.685Z,85.20
2019-04-29T23:28:35.613Z,85.50
2019-04-29T23:31:04.485Z,85.70
2019-04-29T23:33:33.146Z,86.00
2019-04-29T23:36:01.979Z,86.10
2019-04-29T23:38:30.730Z,86.30
2019-04-29T23:40:59.485Z,86.40
2019-04-29T23:43:28.887Z,86.70
2019-04-29T23:46:00.444Z,87.10
2019-04-29T23:48:38.618Z,87.30
2019-04-29T23:50:59.246Z,87.40
2019-04-29T23:53:28.150Z,87.40
2019-04-29T23:56:00.163Z,87.60
2019-04-29T23:58:46.732Z,87.70
